createdAt,value
2023-05-18T00:04:55.061Z,23.13
2023-05-18T00:10:02.405Z,23.05
2023-05-18T00:15:44.757Z,22.99
2023-05-18T00:21:07.234Z,22.84
2023-05-18T00:26:14.872Z,22.71
2023-05-18T00:31:27.329Z,22.62
2023-05-18T00:37:17.757Z,22.50
2023-05-18T00:43:03.430Z,22.38
2023-05-18T00:48:44.162Z,22.31
2023-05-18T00:54:30.290Z,22.22
2023-05-18T00:59:44.006Z,22.14
2023-05-18T01:04:56.395Z,21.98
2023-05-18T01:10:43.575Z,21.84
2023-05-18T01:16:26.262Z,21.70
2023-05-18T01:22:08.709Z,21.52
2023-05-18T01:27:15.960Z,21.43
2023-05-18T01:32:23.519Z,21.29
2023-05-18T01:37:30.699Z,21.19
2023-05-18T01:42:37.887Z,21.09
2023-05-18T01:47:45.195Z,20.95
2023-05-18T01:52:52.296Z,20.89
2023-05-18T01:57:59.491Z,20.83
2023-05-18T02:03:06.837Z,20.74
2023-05-18T02:08:14.069Z,20.63
2023-05-18T02:13:21.383Z,20.58
2023-05-18T02:18:28.613Z,20.57
2023-05-18T02:23:35.819Z,20.49
2023-05-18T02:28:43.107Z,20.43
2023-05-18T02:33:50.520Z,20.40
2023-05-18T02:38:58.067Z,20.37
2023-05-18T02:44:10.421Z,20.32
2023-05-18T02:49:17.877Z,20.29
2023-05-18T02:54:28.762Z,20.25
2023-05-18T02:59:36.085Z,20.24
2023-05-18T03:04:43.579Z,20.21
2023-05-18T03:09:50.904Z,20.18
2023-05-18T03:14:58.369Z,20.18
2023-05-18T03:20:05.732Z,20.15
2023-05-18T03:25:13.108Z,20.19
2023-05-18T03:30:20.791Z,20.17
2023-05-18T03:35:28.557Z,20.12
2023-05-18T03:40:35.875Z,19.99
2023-05-18T03:45:43.208Z,20.12
2023-05-18T03:50:50.388Z,20.17
2023-05-18T03:55:57.594Z,20.31
2023-05-18T04:01:04.730Z,20.28
2023-05-18T04:06:12.058Z,20.18
2023-05-18T04:11:19.405Z,20.05
2023-05-18T04:16:26.605Z,19.90
2023-05-18T04:21:33.906Z,19.79
2023-05-18T04:26:41.171Z,19.74
2023-05-18T04:31:48.489Z,19.70
2023-05-18T04:36:55.944Z,19.61
2023-05-18T04:42:03.452Z,19.57
2023-05-18T04:47:11.178Z,19.57
2023-05-18T04:52:19.047Z,19.59
2023-05-18T04:57:45.264Z,19.60
2023-05-18T05:03:04.765Z,19.62
2023-05-18T05:08:45.395Z,19.62
2023-05-18T05:13:57.930Z,19.62
2023-05-18T05:19:02.720Z,19.57
2023-05-18T05:24:10.392Z,19.60
2023-05-18T05:29:18.109Z,19.73
2023-05-18T05:34:25.463Z,19.89
2023-05-18T05:39:32.740Z,19.95
2023-05-18T05:44:39.986Z,20.13
2023-05-18T05:49:47.171Z,20.15
2023-05-18T05:54:54.407Z,20.11
2023-05-18T06:00:01.846Z,20.07
2023-05-18T06:05:08.961Z,20.13
2023-05-18T06:10:16.118Z,20.07
2023-05-18T06:15:23.361Z,20.04
2023-05-18T06:20:30.552Z,19.96
2023-05-18T06:25:37.746Z,19.97
2023-05-18T06:30:45.008Z,19.99
2023-05-18T06:35:52.213Z,19.91
2023-05-18T06:40:59.516Z,19.89
2023-05-18T06:46:06.897Z,19.87
2023-05-18T06:51:14.129Z,19.95
2023-05-18T06:56:21.354Z,19.91
2023-05-18T07:01:28.904Z,19.90
2023-05-18T07:06:36.008Z,19.91
2023-05-18T07:11:45.503Z,19.83
2023-05-18T07:16:52.422Z,19.73
2023-05-18T07:21:59.790Z,19.24
2023-05-18T07:27:07.351Z,19.69
2023-05-18T07:32:14.847Z,20.01
2023-05-18T07:37:22.117Z,20.16
2023-05-18T07:42:29.397Z,20.10
2023-05-18T07:47:36.939Z,19.97
2023-05-18T07:52:44.230Z,20.12
2023-05-18T07:57:51.450Z,20.17
2023-05-18T08:02:58.966Z,20.06
2023-05-18T08:08:09.863Z,19.96
2023-05-18T08:13:17.196Z,20.25
2023-05-18T08:18:24.494Z,20.10
2023-05-18T08:23:31.995Z,20.14
2023-05-18T08:28:39.328Z,20.30
2023-05-18T08:33:46.590Z,20.35
2023-05-18T08:38:53.738Z,20.28
2023-05-18T08:44:01.190Z,20.24
2023-05-18T08:49:08.789Z,20.09
2023-05-18T08:54:16.875Z,20.10
2023-05-18T08:59:24.334Z,19.96
2023-05-18T09:04:33.290Z,19.94
2023-05-18T09:09:40.642Z,20.34
2023-05-18T09:14:47.818Z,20.55
2023-05-18T09:19:55.034Z,20.72
2023-05-18T09:25:02.176Z,20.86
2023-05-18T09:30:09.387Z,21.02
2023-05-18T09:35:16.603Z,21.17
2023-05-18T09:40:23.786Z,21.32
2023-05-18T09:45:31.501Z,21.48
2023-05-18T09:50:38.730Z,21.63
2023-05-18T09:55:53.165Z,21.75
2023-05-18T10:01:37.202Z,21.81
2023-05-18T10:06:52.662Z,21.88
2023-05-18T10:12:16.221Z,21.94
2023-05-18T10:17:34.806Z,22.01
2023-05-18T10:22:44.856Z,22.09
2023-05-18T10:27:53.657Z,22.09
2023-05-18T10:33:11.311Z,22.18
2023-05-18T10:38:23.978Z,22.26
2023-05-18T10:43:31.373Z,22.42
2023-05-18T10:48:38.741Z,22.57
2023-05-18T10:53:46.006Z,22.71
2023-05-18T10:58:53.127Z,22.82
2023-05-18T11:04:00.413Z,22.96
2023-05-18T11:09:07.717Z,22.99
2023-05-18T11:14:14.969Z,23.10
2023-05-18T11:19:22.404Z,23.15
2023-05-18T11:24:29.604Z,23.25
2023-05-18T11:29:36.803Z,23.24
2023-05-18T11:34:44.282Z,23.35
2023-05-18T11:40:00.390Z,23.42
2023-05-18T11:45:01.846Z,23.50
2023-05-18T11:50:09.202Z,23.60
2023-05-18T11:55:16.628Z,23.58
2023-05-18T12:00:24.268Z,23.57
2023-05-18T12:05:46.881Z,23.64
2023-05-18T12:10:54.216Z,23.59
2023-05-18T12:16:01.565Z,23.61
2023-05-18T12:21:08.863Z,23.67
2023-05-18T12:26:16.334Z,23.68
2023-05-18T12:31:23.724Z,23.70
2023-05-18T12:36:31.112Z,23.70
2023-05-18T12:41:38.855Z,23.72
2023-05-18T12:46:46.147Z,23.72
2023-05-18T12:51:53.592Z,23.73
2023-05-18T12:57:02.326Z,23.75
2023-05-18T13:02:13.054Z,23.77
2023-05-18T13:07:20.379Z,23.79
2023-05-18T13:12:28.981Z,23.77
2023-05-18T13:17:36.287Z,23.82
2023-05-18T13:22:43.784Z,23.83
2023-05-18T13:27:51.166Z,23.86
2023-05-18T13:33:01.272Z,23.86
2023-05-18T13:38:08.596Z,23.86
2023-05-18T13:43:18.798Z,23.86
2023-05-18T13:48:25.383Z,23.88
2023-05-18T13:53:33.200Z,23.90
2023-05-18T13:58:42.481Z,23.87
2023-05-18T14:03:49.874Z,23.88
2023-05-18T14:08:57.233Z,23.89
2023-05-18T14:14:04.666Z,23.91
2023-05-18T14:19:13.366Z,23.91
2023-05-18T14:24:30.417Z,23.95
2023-05-18T14:29:40.767Z,23.94
2023-05-18T14:34:48.288Z,23.97
2023-05-18T14:39:55.674Z,24.01
2023-05-18T14:45:03.128Z,24.03
2023-05-18T14:50:10.573Z,24.04
2023-05-18T14:55:19.103Z,24.05
2023-05-18T15:00:26.580Z,24.12
2023-05-18T15:05:33.859Z,24.18
2023-05-18T15:10:44.277Z,24.27
2023-05-18T15:15:49.328Z,24.23
2023-05-18T15:20:56.692Z,24.26
2023-05-18T15:26:04.936Z,24.29
2023-05-18T15:31:11.683Z,24.43
2023-05-18T15:36:18.935Z,24.41
2023-05-18T15:41:26.284Z,24.55
2023-05-18T15:46:33.748Z,24.57
2023-05-18T15:51:45.412Z,24.59
2023-05-18T15:56:52.918Z,24.62
2023-05-18T16:02:00.612Z,24.60
2023-05-18T16:07:08.910Z,24.51
2023-05-18T16:12:25.469Z,24.53
2023-05-18T16:17:32.915Z,24.50
2023-05-18T16:22:40.333Z,24.56
2023-05-18T16:27:47.747Z,24.54
2023-05-18T16:32:55.579Z,24.55
2023-05-18T16:38:07.804Z,24.66
2023-05-18T16:43:30.748Z,24.59
2023-05-18T16:48:42.610Z,24.49
2023-05-18T16:53:52.860Z,24.60
2023-05-18T16:59:00.716Z,24.68
2023-05-18T17:04:09.101Z,24.56
2023-05-18T17:09:17.089Z,24.50
2023-05-18T17:14:39.975Z,24.53
2023-05-18T17:19:48.000Z,24.62
2023-05-18T17:24:55.771Z,24.62
2023-05-18T17:30:03.762Z,24.64
2023-05-18T17:35:14.249Z,24.64
2023-05-18T17:40:23.159Z,24.64
2023-05-18T17:45:33.487Z,24.57
2023-05-18T17:50:38.658Z,24.50
2023-05-18T17:55:46.753Z,24.59
2023-05-18T18:00:54.749Z,24.65
2023-05-18T18:06:02.770Z,24.64
2023-05-18T18:11:14.110Z,24.73
2023-05-18T18:16:22.210Z,24.79
2023-05-18T18:21:30.044Z,24.79
2023-05-18T18:26:38.070Z,24.77
2023-05-18T18:31:46.000Z,24.76
2023-05-18T18:36:58.704Z,24.79
2023-05-18T18:42:06.864Z,24.84
2023-05-18T18:47:14.986Z,24.98
2023-05-18T18:52:23.253Z,24.98
2023-05-18T18:57:31.439Z,24.90
2023-05-18T19:02:47.633Z,24.80
2023-05-18T19:07:49.395Z,24.85
2023-05-18T19:13:07.368Z,24.88
2023-05-18T19:18:12.461Z,24.90
2023-05-18T19:23:26.761Z,24.93
2023-05-18T19:28:35.886Z,24.97
2023-05-18T19:33:52.243Z,25.01
2023-05-18T19:39:04.749Z,24.98
2023-05-18T19:44:12.765Z,24.95
2023-05-18T19:49:20.771Z,25.00
2023-05-18T19:54:29.023Z,25.02
2023-05-18T19:59:37.202Z,25.04
2023-05-18T20:04:48.424Z,25.04
2023-05-18T20:09:56.877Z,25.06
2023-05-18T20:15:04.703Z,25.03
2023-05-18T20:20:13.412Z,25.04
2023-05-18T20:25:21.504Z,25.08
2023-05-18T20:30:30.890Z,25.07
2023-05-18T20:35:42.513Z,25.02
2023-05-18T20:40:51.517Z,24.95
2023-05-18T20:45:59.257Z,24.89
2023-05-18T20:51:06.820Z,24.89
2023-05-18T20:56:14.837Z,24.90
2023-05-18T21:01:22.308Z,24.86
2023-05-18T21:06:29.565Z,24.84
2023-05-18T21:11:51.814Z,24.84
2023-05-18T21:16:59.357Z,24.80
2023-05-18T21:22:07.003Z,24.76
2023-05-18T21:27:14.416Z,24.78
2023-05-18T21:32:26.008Z,24.77
2023-05-18T21:37:40.861Z,24.75
2023-05-18T21:42:48.772Z,24.87
2023-05-18T21:47:56.112Z,24.92
2023-05-18T21:53:19.059Z,24.97
2023-05-18T21:58:26.409Z,25.01
2023-05-18T22:03:34.109Z,25.01
2023-05-18T22:08:57.428Z,25.01
2023-05-18T22:13:59.976Z,25.12
2023-05-18T22:19:53.480Z,25.15
2023-05-18T22:30:02.234Z,25.19
2023-05-18T22:36:15.367Z,25.19
2023-05-18T22:39:31.128Z,25.16
2023-05-18T22:40:54.177Z,25.14
2023-05-18T22:46:49.507Z,25.08
2023-05-18T22:57:31.199Z,25.02
2023-05-18T23:03:07.349Z,24.94
2023-05-18T23:07:56.964Z,24.88
2023-05-18T23:13:26.106Z,24.77
2023-05-18T23:19:35.467Z,24.71
2023-05-18T23:24:36.676Z,24.70
2023-05-18T23:30:41.978Z,24.62
2023-05-18T23:35:06.665Z,24.56
2023-05-18T23:40:19.016Z,24.51
2023-05-18T23:45:30.141Z,24.46
2023-05-18T23:50:38.647Z,24.38
2023-05-18T23:55:58.826Z,24.28
